Time;durP1;ratioP1;P1;durP2;ratioP2;P2;SDS_P1;SDS_P2;PMS_P1;PMS_P2;Temp;Humidity;BMP_temperature;BMP_pressure;BME280_temperature;BME280_humidity;BME280_pressure;Samples;Min_cycle;Max_cycle;Signal;HPM_P1;HPM_P2
2022/08/12 00:44:52;;;;;;;;;13.75;13.75;;;;;27.84;28.71;101139.09;5020281;28;47195;-63
2022/08/12 00:47:19;;;;;;;;;12.25;12.25;;;;;27.82;29.18;101146.63;5020543;28;45392;-63
2022/08/12 00:49:48;;;;;;;;;15.00;15.00;;;;;27.80;28.95;101141.28;5020712;28;45506;-63
2022/08/12 00:52:14;;;;;;;;;12.00;12.00;;;;;27.78;29.07;101140.53;5020218;28;45379;-63
2022/08/12 00:54:45;;;;;;;;;17.00;16.00;;;;;27.76;29.25;101141.72;5020498;28;45272;-63
2022/08/12 00:57:18;;;;;;;;;17.00;14.50;;;;;27.71;28.90;101139.44;5020075;28;45340;-63
2022/08/12 00:59:50;;;;;;;;;16.00;16.00;;;;;27.68;28.94;101135.13;5020379;28;45331;-63
2022/08/12 01:02:37;;;;;;;;;15.50;15.25;;;;;27.64;28.92;101136.44;5020264;28;45597;-63
2022/08/12 01:13:30;;;;;;;;;13.00;12.50;;;;;27.50;29.46;101125.97;5020091;28;45311;-63
2022/08/12 01:16:06;;;;;;;;;15.25;15.25;;;;;27.50;29.40;101129.56;5019741;28;47232;-63
2022/08/12 01:18:35;;;;;;;;;14.00;14.00;;;;;27.46;29.46;101130.88;5020075;28;45286;-63
2022/08/12 01:21:18;;;;;;;;;13.00;13.00;;;;;27.43;29.35;101133.06;5020141;28;45154;-63
2022/08/12 01:23:49;;;;;;;;;14.00;14.00;;;;;27.40;29.61;101127.88;5020224;28;45292;-63
2022/08/12 01:26:23;;;;;;;;;16.50;15.00;;;;;27.32;29.52;101121.28;5019560;28;45394;-63
2022/08/12 01:28:53;;;;;;;;;12.75;11.75;;;;;27.32;29.53;101131.38;5019781;28;45567;-63
2022/08/12 01:31:20;;;;;;;;;13.75;12.50;;;;;27.25;29.93;101124.72;5020013;28;45316;-63
2022/08/12 01:34:09;;;;;;;;;15.00;13.75;;;;;27.25;29.60;101128.34;5018685;28;45274;-63
2022/08/12 01:36:59;;;;;;;;;12.75;12.75;;;;;27.20;29.87;101133.41;5019813;28;46039;-63
2022/08/12 01:39:34;;;;;;;;;14.50;14.50;;;;;27.13;30.25;101116.69;5019067;28;45494;-63
2022/08/12 01:42:07;;;;;;;;;13.00;13.00;;;;;27.13;29.90;101124.03;5019812;28;45329;-63
2022/08/12 01:44:34;;;;;;;;;14.75;14.75;;;;;27.09;29.81;101117.13;5019651;28;46150;-63
2022/08/12 01:47:41;;;;;;;;;16.00;16.00;;;;;27.07;30.05;101132.88;5019581;28;45354;-63
2022/08/12 01:50:48;;;;;;;;;15.75;15.75;;;;;27.06;30.07;101126.50;5019686;28;45254;-63
2022/08/12 01:53:14;;;;;;;;;13.50;13.50;;;;;27.01;30.31;101114.28;5019794;28;45309;-63
2022/08/12 01:55:46;;;;;;;;;15.25;15.25;;;;;26.97;29.98;101120.03;5019418;28;45359;-63
2022/08/12 01:58:21;;;;;;;;;12.75;12.25;;;;;26.96;30.66;101126.56;5019369;28;46073;-63
2022/08/12 02:00:57;;;;;;;;;11.75;11.75;;;;;26.94;30.20;101123.06;5019536;28;45384;-63
2022/08/12 02:12:25;;;;;;;;;12.25;12.25;;;;;26.76;30.18;101106.56;5019197;28;45313;-63
2022/08/12 02:15:02;;;;;;;;;15.75;13.75;;;;;26.78;30.51;101109.13;5019228;28;45554;-63
2022/08/12 02:17:55;;;;;;;;;15.00;13.75;;;;;26.73;30.47;101109.59;5019632;28;45384;-63
2022/08/12 02:20:47;;;;;;;;;14.00;13.00;;;;;26.71;30.39;101103.38;5019231;28;46503;-63
2022/08/12 02:23:14;;;;;;;;;15.50;13.25;;;;;26.68;31.20;101097.31;5019298;28;45588;-63
2022/08/12 02:25:44;;;;;;;;;11.25;11.25;;;;;26.65;30.65;101100.34;5019549;28;45403;-63
2022/08/12 02:28:10;;;;;;;;;14.25;14.25;;;;;26.62;30.98;101099.59;5019335;28;45268;-63
2022/08/12 02:30:37;;;;;;;;;15.75;15.25;;;;;26.58;30.89;101100.91;5018658;28;45344;-63
2022/08/12 02:33:04;;;;;;;;;12.25;12.25;;;;;26.56;31.28;101099.31;5019313;28;45588;-63
2022/08/12 02:35:32;;;;;;;;;14.75;12.25;;;;;26.54;30.78;101101.34;5019156;28;45328;-63
2022/08/12 02:38:04;;;;;;;;;13.75;12.75;;;;;26.48;30.87;101099.19;5020209;28;45233;-63
2022/08/12 02:40:33;;;;;;;;;11.25;11.25;;;;;26.48;31.04;101101.91;5021258;28;46259;-63
2022/08/12 02:43:07;;;;;;;;;13.00;13.00;;;;;26.46;30.83;101102.06;5011249;28;45418;-63
2022/08/12 02:45:44;;;;;;;;;13.00;13.00;;;;;26.44;31.35;101106.81;5020993;28;45324;-63
2022/08/12 02:48:16;;;;;;;;;12.00;12.00;;;;;26.41;31.10;101088.81;5022517;28;45412;-63
2022/08/12 02:50:45;;;;;;;;;13.25;13.25;;;;;26.40;31.63;101097.19;5022057;28;46653;-63
2022/08/12 02:53:11;;;;;;;;;12.25;12.00;;;;;26.36;30.89;101093.00;5022364;28;45554;-63
2022/08/12 02:55:37;;;;;;;;;14.25;13.25;;;;;26.37;31.32;101094.72;5022207;28;45376;-63
2022/08/12 02:58:08;;;;;;;;;13.00;13.00;;;;;26.35;31.27;101092.13;5022281;28;45249;-63
2022/08/12 03:00:36;;;;;;;;;13.25;12.25;;;;;26.33;31.27;101090.53;5021897;28;46428;-63
2022/08/12 03:03:06;;;;;;;;;12.00;11.00;;;;;26.31;30.91;101087.09;5021904;28;45434;-63
2022/08/12 03:05:34;;;;;;;;;13.50;12.50;;;;;26.27;31.53;101086.50;5022421;28;45313;-63
2022/08/12 03:08:03;;;;;;;;;13.00;11.50;;;;;26.29;31.09;101089.97;5022169;28;45360;-63
2022/08/12 03:10:34;;;;;;;;;13.00;10.50;;;;;26.21;31.35;101084.34;5018903;28;45308;-63
2022/08/12 03:13:02;;;;;;;;;13.25;13.25;;;;;26.25;31.92;101094.00;5021986;28;45439;-63
2022/08/12 03:15:29;;;;;;;;;13.25;13.25;;;;;26.23;31.45;101093.28;5020611;28;45539;-63
2022/08/12 03:18:05;;;;;;;;;12.75;12.25;;;;;26.21;31.88;101107.13;5021938;28;45261;-62
2022/08/12 03:20:36;;;;;;;;;12.50;12.50;;;;;26.19;31.28;101105.50;5021888;28;46200;-63
2022/08/12 03:23:04;;;;;;;;;12.75;12.75;;;;;26.08;31.25;101084.66;5021740;28;45328;-63
2022/08/12 03:25:36;;;;;;;;;12.75;12.75;;;;;26.15;31.17;101104.94;5022160;28;45252;-63
2022/08/12 03:28:03;;;;;;;;;13.75;13.75;;;;;26.14;31.25;101100.47;5021660;28;45396;-63
2022/08/12 03:30:31;;;;;;;;;12.00;12.00;;;;;26.13;31.45;101103.34;5021476;28;46167;-63
2022/08/12 03:32:58;;;;;;;;;15.50;13.25;;;;;26.12;31.32;101107.09;5021721;28;45232;-63
2022/08/12 03:35:29;;;;;;;;;15.50;14.25;;;;;26.07;31.21;101102.91;5021910;28;45367;-63
2022/08/12 03:38:05;;;;;;;;;12.75;12.75;;;;;26.06;31.19;101103.94;5021966;28;45258;-63
2022/08/12 04:00:24;;;;;;;;;11.25;11.25;;;;;25.86;31.47;101105.72;5020942;28;45261;-63
2022/08/12 04:03:00;;;;;;;;;12.25;12.25;;;;;25.83;32.20;101092.34;5021172;28;45447;-63
2022/08/12 04:05:29;;;;;;;;;12.25;11.50;;;;;25.82;31.41;101093.31;5008415;28;45454;-63
2022/08/12 04:07:56;;;;;;;;;14.75;14.00;;;;;25.80;31.62;101098.09;5021188;28;45324;-63
2022/08/12 04:13:13;;;;;;;;;12.25;12.25;;;;;25.79;31.36;101090.88;5021215;28;45257;-62
2022/08/12 04:13:18;;;;;;;;;13.50;12.50;;;;;25.71;31.92;101082.53;5020800;28;45320;-63
2022/08/12 04:15:44;;;;;;;;;11.75;11.75;;;;;25.73;32.27;101085.09;5020697;28;45331;-63
2022/08/12 04:18:17;;;;;;;;;13.75;13.00;;;;;25.71;31.73;101082.53;5020293;28;45265;-63
2022/08/12 04:20:46;;;;;;;;;13.00;12.50;;;;;25.71;32.33;101082.53;5020875;28;45356;-62
2022/08/12 04:23:14;;;;;;;;;13.75;13.75;;;;;25.67;32.06;101086.53;5020837;28;47009;-63
2022/08/12 04:25:40;;;;;;;;;13.00;11.00;;;;;25.68;31.92;101086.41;5020889;28;45339;-63
2022/08/12 04:28:11;;;;;;;;;13.50;13.50;;;;;25.68;31.96;101091.88;5021092;28;45350;-63
2022/08/12 04:30:38;;;;;;;;;12.00;12.00;;;;;25.69;32.01;101090.00;5020457;28;45248;-62
2022/08/12 04:33:07;;;;;;;;;12.00;12.00;;;;;25.64;32.30;101089.53;5020746;28;46077;-63
2022/08/12 04:35:33;;;;;;;;;15.00;12.75;;;;;25.63;32.16;101087.84;5020748;28;45320;-63
2022/08/12 04:37:59;;;;;;;;;13.50;12.75;;;;;25.63;32.16;101091.41;5021062;28;45863;-63
2022/08/12 04:40:26;;;;;;;;;12.25;12.25;;;;;25.64;32.50;101092.28;5020645;28;45471;-62
2022/08/12 04:42:51;;;;;;;;;17.00;17.00;;;;;25.61;32.13;101095.28;5020337;28;46219;-63
2022/08/12 04:45:18;;;;;;;;;11.00;11.00;;;;;25.60;32.40;101093.56;5020210;28;45308;-63
2022/08/12 04:47:44;;;;;;;;;11.75;11.75;;;;;25.58;31.73;101099.19;5019625;28;45289;-62
2022/08/12 04:50:14;;;;;;;;;11.75;9.75;;;;;25.57;32.04;101096.59;5008312;28;45388;-62
2022/08/12 04:52:40;;;;;;;;;11.75;11.75;;;;;25.54;32.15;101099.59;5020406;28;45336;-62
2022/08/12 04:55:07;;;;;;;;;15.75;12.00;;;;;25.55;32.15;101099.44;5020324;28;45939;-62
2022/08/12 04:57:32;;;;;;;;;14.25;14.25;;;;;25.52;32.41;101099.72;5020585;28;45235;-63
2022/08/12 04:59:57;;;;;;;;;11.25;11.25;;;;;25.53;32.47;101098.72;5020205;28;45300;-62
2022/08/12 05:02:24;;;;;;;;;14.50;12.25;;;;;25.52;32.74;101103.31;5019769;28;46319;-63
2022/08/12 05:04:55;;;;;;;;;11.75;11.75;;;;;25.50;32.43;101099.84;5020381;28;45360;-63
2022/08/12 05:07:22;;;;;;;;;16.00;13.50;;;;;25.48;32.75;101096.41;5020654;28;45300;-63
2022/08/12 05:09:48;;;;;;;;;10.50;9.75;;;;;25.45;32.40;101101.28;5020274;28;45456;-63
2022/08/12 05:12:17;;;;;;;;;11.00;11.00;;;;;25.48;33.16;101103.75;5019920;28;45430;-63
2022/08/12 05:14:42;;;;;;;;;12.50;12.00;;;;;25.45;33.18;101110.34;5019883;28;45381;-63
2022/08/12 05:17:08;;;;;;;;;12.25;12.25;;;;;25.43;32.58;101114.22;5018125;28;45528;-63
2022/08/12 05:19:34;;;;;;;;;12.75;12.75;;;;;25.42;32.57;101115.22;5019983;28;45378;-63
2022/08/12 05:21:59;;;;;;;;;14.25;12.50;;;;;25.38;33.04;101113.78;5020086;28;45348;-63
2022/08/12 05:24:24;;;;;;;;;12.50;11.50;;;;;25.38;33.33;101119.25;5019947;28;45368;-62
2022/08/12 05:26:51;;;;;;;;;11.75;11.75;;;;;25.35;32.76;101120.38;5019824;28;48560;-63
2022/08/12 05:29:16;;;;;;;;;12.25;12.25;;;;;25.33;33.24;101116.91;5019776;28;45254;-62
2022/08/12 05:31:42;;;;;;;;;13.00;11.50;;;;;25.29;33.57;101116.31;5019756;28;46029;-63
2022/08/12 05:34:13;;;;;;;;;13.75;12.50;;;;;25.30;33.68;101117.19;5019917;28;45344;-63
2022/08/12 05:36:40;;;;;;;;;12.25;12.00;;;;;25.29;33.67;101116.31;5020063;28;45442;-62
2022/08/12 05:39:06;;;;;;;;;12.75;12.25;;;;;25.31;32.99;101116.19;5020046;28;45320;-62
2022/08/12 05:41:33;;;;;;;;;13.25;12.25;;;;;25.30;32.89;101115.31;5019663;28;46017;-63
2022/08/12 05:44:02;;;;;;;;;12.75;12.75;;;;;25.28;33.21;101117.31;5017239;28;45470;-62
2022/08/12 05:46:29;;;;;;;;;15.50;13.75;;;;;25.27;33.42;101120.19;5019832;28;45402;-63
2022/08/12 05:48:55;;;;;;;;;12.75;12.00;;;;;25.27;33.41;101120.19;5019710;28;45324;-62
2022/08/12 05:51:25;;;;;;;;;11.00;11.00;;;;;25.23;33.94;101115.97;5019420;28;46196;-62
2022/08/12 05:53:51;;;;;;;;;12.00;12.00;;;;;25.26;33.43;101123.88;5019290;28;45443;-62
2022/08/12 05:56:19;;;;;;;;;12.50;12.50;;;;;25.20;33.33;101113.50;5019818;28;45249;-62
2022/08/12 05:58:46;;;;;;;;;11.50;11.25;;;;;25.22;33.77;101126.00;5019196;28;45320;-62
2022/08/12 06:01:11;;;;;;;;;14.00;13.00;;;;;25.20;33.55;101129.91;5019488;28;45979;-62
2022/08/12 06:03:37;;;;;;;;;15.00;13.00;;;;;25.19;33.02;101115.34;5019330;28;45264;-62
2022/08/12 06:06:03;;;;;;;;;13.75;12.50;;;;;25.20;32.74;101127.16;5019696;28;45198;-63
2022/08/12 06:08:28;;;;;;;;;9.00;9.00;;;;;25.17;33.27;101111.03;5019481;28;45220;-62
2022/08/12 06:10:55;;;;;;;;;14.50;11.00;;;;;25.21;33.38;101110.66;5017575;28;48019;-62
2022/08/12 06:13:21;;;;;;;;;12.00;11.25;;;;;25.21;32.94;101117.94;5020427;28;45384;-62
2022/08/12 06:15:48;;;;;;;;;11.50;11.00;;;;;25.20;32.92;101118.97;5022976;28;45324;-62
2022/08/12 06:18:13;;;;;;;;;12.00;12.00;;;;;25.23;33.43;101121.44;5022918;28;45353;-62
2022/08/12 06:20:39;;;;;;;;;13.00;13.00;;;;;25.23;33.21;101115.97;5022831;28;45351;-62
2022/08/12 06:23:05;;;;;;;;;12.25;12.25;;;;;25.28;33.08;101120.03;5020507;28;45670;-62
2022/08/12 06:25:30;;;;;;;;;12.00;12.00;;;;;25.38;33.20;101119.25;5022981;28;45163;-62
2022/08/12 06:27:58;;;;;;;;;13.00;13.00;;;;;25.41;33.81;101117.09;5020980;28;45572;-63
2022/08/12 06:30:24;;;;;;;;;11.00;11.00;;;;;25.45;33.76;101120.41;5022216;28;46176;-62
2022/08/12 06:32:51;;;;;;;;;9.25;9.25;;;;;25.43;33.14;101119.69;5022516;28;45261;-62
2022/08/12 06:35:18;;;;;;;;;14.75;11.50;;;;;25.46;32.83;101119.41;5021338;28;45382;-62
2022/08/12 06:37:49;;;;;;;;;13.00;12.00;;;;;25.43;32.74;101115.09;5022559;28;45471;-62
2022/08/12 06:42:46;;;;;;;;;15.00;13.25;;;;;25.42;32.57;101121.53;5022400;28;45285;-62
2022/08/12 06:43:01;;;;;;;;;11.75;11.75;;;;;25.43;31.97;101126.03;5022369;28;45330;-63
2022/08/12 06:45:27;;;;;;;;;13.00;11.75;;;;;25.47;32.43;101123.88;5022084;28;46181;-63
2022/08/12 06:47:53;;;;;;;;;13.75;12.75;;;;;25.50;32.23;101129.06;5022442;28;45320;-62
2022/08/12 06:50:19;;;;;;;;;8.50;8.25;;;;;25.47;32.03;101122.00;5022073;28;46853;-62
2022/08/12 06:52:45;;;;;;;;;11.75;11.75;;;;;25.48;32.75;101125.63;5022298;28;45443;-63
2022/08/12 06:55:24;;;;;;;;;13.00;13.00;;;;;25.52;31.32;101130.63;5021168;28;45402;-62
2022/08/12 06:57:54;;;;;;;;;11.75;10.75;;;;;25.54;31.45;101124.19;5022412;28;45444;-62
2022/08/12 07:00:22;;;;;;;;;10.75;10.75;;;;;25.55;31.38;101120.47;5021787;28;46070;-62
2022/08/12 07:02:47;;;;;;;;;9.75;9.75;;;;;25.58;30.73;101128.38;5021044;28;45223;-62
2022/08/12 07:05:13;;;;;;;;;11.00;9.50;;;;;25.60;31.25;101129.97;5020134;28;45173;-62
2022/08/12 07:07:38;;;;;;;;;9.75;9.75;;;;;25.62;31.04;101117.00;5022105;28;45426;-62
2022/08/12 07:10:04;;;;;;;;;10.50;10.25;;;;;25.65;31.15;101122.22;5021856;28;46240;-62
2022/08/12 07:12:30;;;;;;;;;12.00;10.75;;;;;25.69;30.75;101126.41;5021913;28;45395;-62
2022/08/12 07:14:57;;;;;;;;;12.25;11.25;;;;;25.71;30.43;101126.28;5021682;28;45386;-62
2022/08/12 07:17:23;;;;;;;;;12.00;10.25;;;;;25.76;31.77;101123.09;5022145;28;45407;-63
2022/08/12 07:19:50;;;;;;;;;11.50;10.50;;;;;25.81;30.56;101118.97;5021708;28;46190;-62
2022/08/12 07:22:16;;;;;;;;;9.50;9.50;;;;;25.86;30.30;101116.66;5021839;28;45285;-62
2022/08/12 07:24:42;;;;;;;;;10.75;10.75;;;;;25.92;31.44;101125.31;5021487;28;45239;-62
2022/08/12 07:27:07;;;;;;;;;12.00;10.75;;;;;25.93;30.85;101113.34;5021764;28;45166;-62
2022/08/12 07:29:33;;;;;;;;;13.25;11.00;;;;;25.98;30.73;101113.84;5021336;28;45317;-62
2022/08/12 07:31:58;;;;;;;;;11.75;11.25;;;;;26.05;30.17;101118.59;5020609;28;45273;-62
2022/08/12 07:34:25;;;;;;;;;13.50;11.00;;;;;26.12;30.24;101113.44;5021763;28;45323;-62
2022/08/12 07:36:50;;;;;;;;;8.50;8.50;;;;;26.15;29.89;101115.88;5020790;28;45456;-62
2022/08/12 07:39:16;;;;;;;;;8.25;8.25;;;;;26.24;30.12;101122.38;5020007;28;46177;-62
2022/08/12 07:41:42;;;;;;;;;11.00;11.00;;;;;26.28;29.89;101118.34;5021476;28;45428;-62
2022/08/12 07:44:08;;;;;;;;;8.50;8.50;;;;;26.33;29.94;101112.44;5021378;28;45387;-62
2022/08/12 07:46:40;;;;;;;;;11.75;10.50;;;;;26.40;29.78;101110.88;5021529;28;45490;-62
2022/08/12 07:49:11;;;;;;;;;9.50;9.50;;;;;26.47;30.20;101112.00;5021306;28;46402;-62
2022/08/12 07:51:37;;;;;;;;;12.75;10.50;;;;;26.52;30.08;101119.78;5021143;28;45354;-62
2022/08/12 07:54:08;;;;;;;;;8.75;8.75;;;;;26.53;29.83;101111.44;5021551;28;45291;-62
2022/08/12 07:56:35;;;;;;;;;13.25;10.50;;;;;26.58;29.40;101103.66;5021410;28;45410;-63
2022/08/12 07:59:01;;;;;;;;;10.00;10.00;;;;;26.65;29.92;101105.81;5021256;28;45416;-62
2022/08/12 08:01:27;;;;;;;;;9.25;9.25;;;;;26.72;29.23;101110.56;5021194;28;45452;-63
2022/08/12 08:06:41;;;;;;;;;9.50;9.50;;;;;26.86;30.26;101111.13;5021241;28;45678;-62
2022/08/12 08:09:07;;;;;;;;;6.50;6.50;;;;;26.91;29.47;101106.94;5020196;28;46344;-63
2022/08/12 08:14:16;;;;;;;;;12.25;10.25;;;;;26.99;30.16;101114.41;5021058;28;45324;-62
2022/08/12 08:16:42;;;;;;;;;10.00;9.00;;;;;27.03;29.42;101115.88;5021062;28;45493;-63
2022/08/12 08:19:14;;;;;;;;;12.25;11.50;;;;;27.08;28.94;101116.28;5021226;28;45353;-62
2022/08/12 08:21:40;;;;;;;;;9.50;9.50;;;;;27.14;29.46;101123.03;5020811;28;45413;-63
2022/08/12 08:24:14;;;;;;;;;12.25;10.00;;;;;27.17;29.18;101125.47;5021089;28;45367;-64
2022/08/12 08:26:48;;;;;;;;;10.00;9.00;;;;;27.19;29.19;101123.44;5020805;28;45209;-63
2022/08/12 08:29:14;;;;;;;;;11.75;11.50;;;;;27.21;29.62;101124.16;5020616;28;45266;-62
2022/08/12 08:31:42;;;;;;;;;9.25;7.25;;;;;27.26;29.86;101127.31;5020935;28;45226;-62
2022/08/12 08:34:08;;;;;;;;;9.00;9.00;;;;;27.31;29.57;101129.66;5020429;28;45422;-62
2022/08/12 08:36:33;;;;;;;;;8.75;8.75;;;;;27.37;29.00;101125.47;5016288;28;45319;-62
2022/08/12 08:38:58;;;;;;;;;9.00;9.00;;;;;27.41;28.95;101129.63;5019455;28;46113;-62
2022/08/12 08:44:10;;;;;;;;;10.75;10.25;;;;;27.49;29.00;101124.25;5020397;28;45490;-64
2022/08/12 08:46:36;;;;;;;;;9.25;9.25;;;;;27.51;29.07;101113.97;5020593;28;45414;-64
2022/08/12 08:49:02;;;;;;;;;8.50;8.50;;;;;27.56;29.12;101124.50;5020277;28;45331;-65
2022/08/12 08:51:27;;;;;;;;;10.75;10.00;;;;;27.58;28.83;101120.56;5020979;28;45251;-66
2022/08/12 08:53:53;;;;;;;;;11.75;11.75;;;;;27.59;29.80;101118.72;5020497;28;45676;-65
2022/08/12 08:56:19;;;;;;;;;10.75;10.00;;;;;27.70;28.91;101126.75;5020613;28;48669;-64
2022/08/12 08:58:44;;;;;;;;;12.00;10.50;;;;;27.74;28.94;101119.94;5019980;28;46215;-64
2022/08/12 09:01:10;;;;;;;;;9.50;8.75;;;;;27.76;29.04;101114.31;5020902;28;45348;-65
2022/08/12 09:03:36;;;;;;;;;9.00;9.00;;;;;27.82;28.95;101121.91;5020258;28;45284;-64
2022/08/12 09:06:01;;;;;;;;;12.00;12.00;;;;;27.87;29.16;101111.34;5019478;28;45438;-65
2022/08/12 09:08:27;;;;;;;;;11.50;10.75;;;;;27.93;28.86;101124.47;5018997;28;46515;-65
2022/08/12 09:10:57;;;;;;;;;12.50;11.00;;;;;28.00;28.66;101114.63;5020284;28;45448;-64
2022/08/12 09:13:31;;;;;;;;;10.00;10.00;;;;;28.05;29.72;101120.50;5019797;28;45197;-65
2022/08/12 09:15:56;;;;;;;;;10.75;9.25;;;;;28.13;29.88;101118.84;5020137;28;45229;-65
2022/08/12 09:18:23;;;;;;;;;10.00;10.00;;;;;28.19;29.34;101115.50;5019878;28;46041;-65
2022/08/12 09:20:49;;;;;;;;;11.75;10.00;;;;;28.28;29.35;101115.44;5020093;28;45481;-65
2022/08/12 09:23:16;;;;;;;;;10.75;10.75;;;;;28.34;28.55;101111.19;5020075;28;45466;-65
2022/08/12 09:25:43;;;;;;;;;10.25;10.25;;;;;28.40;28.88;101115.16;5019933;28;45368;-65
2022/08/12 09:28:10;;;;;;;;;11.25;10.25;;;;;28.46;28.14;101109.06;5019458;28;46064;-65
2022/08/12 09:30:43;;;;;;;;;9.75;9.75;;;;;28.52;27.81;101111.19;5019867;28;45308;-65
2022/08/12 09:33:08;;;;;;;;;11.75;10.25;;;;;28.57;28.20;101105.25;5018494;28;45311;-65
2022/08/12 09:35:39;;;;;;;;;9.50;9.50;;;;;28.61;28.72;101102.00;5019702;28;45327;-65
2022/08/12 09:38:05;;;;;;;;;9.50;9.50;;;;;28.66;28.23;101101.53;5019663;28;47202;-66
2022/08/12 09:40:30;;;;;;;;;9.00;9.00;;;;;28.71;28.23;101107.41;5019650;28;45517;-66
2022/08/12 09:45:44;;;;;;;;;11.00;11.00;;;;;28.81;28.99;101094.44;5019349;28;45474;-66
2022/08/12 09:48:15;;;;;;;;;11.50;11.50;;;;;28.87;28.08;101081.97;5022345;28;46154;-66
2022/08/12 09:50:44;;;;;;;;;8.25;8.25;;;;;28.92;27.70;101079.59;5023106;28;45328;-66
2022/08/12 09:53:10;;;;;;;;;10.00;9.50;;;;;28.94;28.08;101077.53;5023413;28;45367;-67
2022/08/12 09:55:40;;;;;;;;;9.00;9.00;;;;;28.98;27.69;101084.41;5022970;28;45587;-65
2022/08/12 09:58:05;;;;;;;;;9.00;9.00;;;;;29.05;28.50;101075.53;5023165;28;45379;-66
2022/08/12 10:00:33;;;;;;;;;9.00;9.00;;;;;29.14;27.82;101082.81;5022820;28;52265;-66
2022/08/12 10:03:01;;;;;;;;;10.75;9.50;;;;;29.21;27.70;101077.56;5022233;28;46118;-66
2022/08/12 10:05:27;;;;;;;;;10.25;10.25;;;;;29.26;27.82;101067.78;5022113;28;45956;-67
2022/08/12 10:07:52;;;;;;;;;8.50;8.50;;;;;29.30;26.82;101077.44;5022585;28;57802;-66
2022/08/12 10:10:18;;;;;;;;;8.00;8.00;;;;;29.36;27.02;101081.41;5023094;28;45271;-66
2022/08/12 10:15:30;;;;;;;;;8.75;7.75;;;;;29.51;26.87;101065.16;5022721;28;45151;-66
2022/08/12 10:17:55;;;;;;;;;9.75;8.00;;;;;29.56;26.74;101057.25;5022929;28;46615;-66
2022/08/12 10:20:21;;;;;;;;;6.00;6.00;;;;;29.64;26.91;101059.19;5022944;28;45332;-66
2022/08/12 10:23:00;;;;;;;;;5.75;4.00;;;;;29.69;26.59;101049.38;5022685;28;50599;-66
2022/08/12 10:30:53;;;;;;;;;7.75;7.50;;;;;29.82;25.90;101043.44;5021095;28;45323;-66
2022/08/12 10:33:18;;;;;;;;;7.25;7.25;;;;;29.91;25.29;101041.56;5022375;28;48695;-66
2022/08/12 10:35:44;;;;;;;;;6.00;6.00;;;;;29.96;25.77;101043.81;5022678;28;45511;-66
2022/08/12 10:38:16;;;;;;;;;7.00;7.00;;;;;30.02;26.17;101037.63;5022594;28;46252;-66
2022/08/12 10:43:44;;;;;;;;;7.00;4.25;;;;;30.20;26.22;101026.44;5022336;28;45364;-66
2022/08/12 10:46:18;;;;;;;;;7.50;7.00;;;;;30.28;26.24;101034.72;5022667;28;45452;-66
2022/08/12 10:48:50;;;;;;;;;7.50;7.25;;;;;30.37;25.78;101030.97;5022475;28;45469;-66
2022/08/12 10:51:18;;;;;;;;;8.25;8.25;;;;;30.42;25.10;101027.69;5022382;28;45395;-66
2022/08/12 10:53:47;;;;;;;;;9.00;8.25;;;;;30.47;25.05;101022.50;5022341;28;45463;-66
2022/08/12 10:56:17;;;;;;;;;6.00;6.00;;;;;30.53;25.23;101034.75;5022466;28;45522;-66
2022/08/12 10:58:43;;;;;;;;;5.75;5.75;;;;;30.56;24.54;101031.66;5021108;28;46395;-66
2022/08/12 11:01:12;;;;;;;;;5.25;5.25;;;;;30.57;24.60;101025.97;5021255;28;45233;-66
2022/08/12 11:03:38;;;;;;;;;6.25;6.25;;;;;30.60;25.20;101024.75;5020626;28;45660;-66
2022/08/12 11:06:09;;;;;;;;;7.75;7.00;;;;;30.62;24.39;101023.56;5022273;28;45403;-66
2022/08/12 11:08:37;;;;;;;;;6.00;6.00;;;;;30.62;24.47;101018.03;5022009;28;46547;-66
2022/08/12 11:11:07;;;;;;;;;8.00;6.75;;;;;30.65;23.96;101014.91;5022128;28;45346;-66
2022/08/12 11:13:36;;;;;;;;;6.50;6.50;;;;;30.67;24.30;101004.59;5022085;28;45260;-66
2022/08/12 11:16:04;;;;;;;;;6.25;6.25;;;;;30.67;24.36;100998.19;5021902;28;45479;-66
2022/08/12 11:18:30;;;;;;;;;5.75;5.75;;;;;30.74;24.29;100995.59;5021550;28;46083;-66
2022/08/12 11:20:55;;;;;;;;;6.25;5.00;;;;;30.76;23.90;100990.81;5021849;28;45217;-66
2022/08/12 11:23:21;;;;;;;;;8.00;6.00;;;;;30.80;24.30;100998.53;5022277;28;46114;-66
2022/08/12 11:25:50;;;;;;;;;6.25;6.25;;;;;30.84;24.26;100994.38;5021894;28;45233;-66
2022/08/12 11:28:16;;;;;;;;;5.00;5.00;;;;;30.91;24.09;100988.19;5021603;28;45379;-66
2022/08/12 11:30:42;;;;;;;;;6.00;6.00;;;;;30.98;24.04;100986.47;5018431;28;45530;-67
2022/08/12 11:33:08;;;;;;;;;7.75;7.00;;;;;31.00;24.35;100973.34;5020510;28;45342;-67
2022/08/12 11:35:35;;;;;;;;;5.50;5.50;;;;;31.05;24.28;100972.81;5021680;28;45265;-66
2022/08/12 11:38:01;;;;;;;;;5.50;5.50;;;;;31.12;23.51;100973.81;5021605;28;46904;-66
2022/08/12 11:40:27;;;;;;;;;6.75;6.75;;;;;31.12;24.11;100979.31;5021648;28;45240;-66
2022/08/12 11:42:53;;;;;;;;;7.50;7.25;;;;;31.20;23.82;100968.25;5021687;28;45237;-66
2022/08/12 11:45:18;;;;;;;;;6.00;6.00;;;;;31.23;23.60;100975.34;5021274;28;45383;-66
2022/08/12 11:47:44;;;;;;;;;7.00;5.50;;;;;31.25;24.21;100973.25;5021728;28;45265;-66
2022/08/12 11:50:09;;;;;;;;;5.00;5.00;;;;;31.26;23.89;100966.66;5021394;28;45456;-66
2022/08/12 11:52:34;;;;;;;;;6.25;6.25;;;;;31.26;23.74;100958.41;5021408;28;45462;-66
2022/08/12 11:55:00;;;;;;;;;8.00;6.00;;;;;31.31;24.07;100959.59;5021476;28;45213;-66
2022/08/12 11:57:25;;;;;;;;;8.75;8.75;;;;;31.35;23.27;100955.41;5021212;28;46160;-66
2022/08/12 11:59:51;;;;;;;;;5.25;5.25;;;;;31.35;23.62;100952.66;5019426;28;46159;-66
2022/08/12 12:02:16;;;;;;;;;5.50;5.50;;;;;31.42;23.23;100955.56;5020355;28;45414;-66
2022/08/12 12:04:42;;;;;;;;;5.50;5.50;;;;;31.43;23.28;100954.53;5021119;28;45319;-66
2022/08/12 12:07:07;;;;;;;;;5.00;5.00;;;;;31.47;23.04;100957.78;5021456;28;45295;-66
2022/08/12 12:09:32;;;;;;;;;7.25;6.75;;;;;31.44;22.83;100953.50;5019850;28;45421;-66
2022/08/12 12:11:59;;;;;;;;;6.00;6.00;;;;;31.46;23.19;100948.66;5018165;28;45673;-67
2022/08/12 12:14:26;;;;;;;;;3.75;3.50;;;;;31.49;22.74;100945.53;5020188;28;45605;-67
2022/08/12 12:16:51;;;;;;;;;6.00;6.00;;;;;31.49;22.42;100945.53;5020974;28;46297;-67
2022/08/12 12:19:16;;;;;;;;;6.00;6.00;;;;;31.51;22.30;100939.88;5021191;28;45202;-67
2022/08/12 12:21:42;;;;;;;;;5.00;4.25;;;;;31.51;23.08;100940.72;5021147;28;45485;-67
2022/08/12 12:24:07;;;;;;;;;6.25;6.25;;;;;31.53;22.78;100954.34;5021265;28;45479;-67
2022/08/12 12:26:33;;;;;;;;;4.25;4.25;;;;;31.54;22.61;100953.28;5020816;28;46817;-67
2022/08/12 12:28:58;;;;;;;;;6.25;6.25;;;;;31.52;22.62;100931.38;5020756;28;45329;-67
2022/08/12 12:31:23;;;;;;;;;6.00;6.00;;;;;31.58;22.59;100925.13;5021061;28;45253;-67
2022/08/12 12:33:49;;;;;;;;;5.00;4.25;;;;;31.60;22.72;100933.25;5020766;28;45441;-66
2022/08/12 12:36:14;;;;;;;;;6.25;5.75;;;;;31.60;22.21;100930.47;5020819;28;46823;-67
2022/08/12 12:38:40;;;;;;;;;6.75;5.75;;;;;31.54;22.70;100918.28;5020657;28;45221;-67
2022/08/12 12:41:05;;;;;;;;;5.00;5.00;;;;;31.65;21.60;100936.31;5019814;28;45217;-67
2022/08/12 12:43:31;;;;;;;;;6.25;5.00;;;;;31.65;21.93;100918.91;5020352;28;45472;-67
2022/08/12 12:45:56;;;;;;;;;6.25;6.25;;;;;31.65;22.03;100924.41;5020441;28;46278;-67
2022/08/12 12:48:21;;;;;;;;;5.75;5.75;;;;;31.65;21.99;100919.75;5020762;28;46047;-67
2022/08/12 12:51:14;;;;;;;;;4.75;4.75;;;;;31.68;22.25;100916.63;5020479;28;45475;-67
2022/08/12 12:53:39;;;;;;;;;5.75;5.75;;;;;31.73;22.41;100916.94;5020183;28;45241;-67
2022/08/12 12:56:11;;;;;;;;;6.00;5.75;;;;;31.77;22.22;100915.50;5020535;28;46006;-67
2022/08/12 12:58:36;;;;;;;;;8.25;7.00;;;;;31.83;21.83;100926.88;5020120;28;45205;-67
2022/08/12 13:01:02;;;;;;;;;8.00;7.00;;;;;31.85;21.91;100919.25;5020521;28;45502;-67
2022/08/12 13:03:34;;;;;;;;;5.00;5.00;;;;;31.83;22.22;100900.13;5020361;28;45426;-67